Clyde Park, Montana
Current Conditions -  °F | °C
As of 5:53 AM on Wednesday 22 Oct 2014 (Local Time) from KLVM Reporting Station
Clear Clear  
Wind Chill: 35°   Ceiling: Unl
Heat Index: 43°   Visibility: 10mi
Dew Point: 27°   Wind: 18mph
Humidity: 53%   Direction: 260°W
Pressure: 30.03"   Gusts: 25mph
Location:  45.89°N, 110.6°W
Report Text: KLVM 221153Z AUTO 26016G22KT 10SM CLR 06/M03 A3003 RMK AO2 SLP168 T00611028 10078 20033 50002
Loading
Personal Weather Stations






























Interactive Weather Map
Tropical Storm Tracking
New forecast layout! Learn more

10-Day Weather Forecast

Advertisements
Track Severe Weather on mobile